sensor_id;sensor_type;location;lat;lon;timestamp;pressure;altitude;pressure_sealevel;temperature
66372;BMP180;53168;51.146;17.120;2023-07-02T00:02:27;99082.40;;;19.00
66372;BMP180;53168;51.146;17.120;2023-07-02T00:04:57;99085.40;;;19.00
66372;BMP180;53168;51.146;17.120;2023-07-02T00:07:26;99087.20;;;19.00
66372;BMP180;53168;51.146;17.120;2023-07-02T00:09:56;99085.40;;;19.00
66372;BMP180;53168;51.146;17.120;2023-07-02T00:12:26;99086.00;;;19.00
66372;BMP180;53168;51.146;17.120;2023-07-02T00:14:55;99081.40;;;19.00
66372;BMP180;53168;51.146;17.120;2023-07-02T00:17:25;99084.60;;;19.00
66372;BMP180;53168;51.146;17.120;2023-07-02T00:19:55;99086.40;;;19.00
66372;BMP180;53168;51.146;17.120;2023-07-02T00:22:25;99091.80;;;19.00
66372;BMP180;53168;51.146;17.120;2023-07-02T00:24:54;99094.80;;;19.10
66372;BMP180;53168;51.146;17.120;2023-07-02T00:27:24;99092.20;;;19.20
66372;BMP180;53168;51.146;17.120;2023-07-02T00:29:54;99095.20;;;19.20
66372;BMP180;53168;51.146;17.120;2023-07-02T00:32:24;99090.60;;;19.20
66372;BMP180;53168;51.146;17.120;2023-07-02T01:55:28;99073.20;;;20.10
66372;BMP180;53168;51.146;17.120;2023-07-02T02:14:26;99087.20;;;19.98
66372;BMP180;53168;51.146;17.120;2023-07-02T02:17:17;99086.80;;;19.90
66372;BMP180;53168;51.146;17.120;2023-07-02T02:25:09;99089.00;;;19.90
66372;BMP180;53168;51.146;17.120;2023-07-02T02:29:08;99095.20;;;19.80
66372;BMP180;53168;51.146;17.120;2023-07-02T02:37:45;99106.40;;;18.98
66372;BMP180;53168;51.146;17.120;2023-07-02T02:41:42;99099.20;;;18.50
66372;BMP180;53168;51.146;17.120;2023-07-02T02:44:58;99102.60;;;18.22
66372;BMP180;53168;51.146;17.120;2023-07-02T02:47:54;99103.00;;;18.20
66372;BMP180;53168;51.146;17.120;2023-07-02T02:50:56;99108.40;;;18.20
66372;BMP180;53168;51.146;17.120;2023-07-02T02:53:27;99113.00;;;18.20
66372;BMP180;53168;51.146;17.120;2023-07-02T02:55:56;99112.40;;;18.20
66372;BMP180;53168;51.146;17.120;2023-07-02T02:58:29;99115.60;;;18.26
66372;BMP180;53168;51.146;17.120;2023-07-02T03:00:59;99118.60;;;18.26
66372;BMP180;53168;51.146;17.120;2023-07-02T03:06:14;99114.40;;;18.30
66372;BMP180;53168;51.146;17.120;2023-07-02T03:12:09;99113.00;;;18.40
66372;BMP180;53168;51.146;17.120;2023-07-02T03:14:39;99112.20;;;18.46
66372;BMP180;53168;51.146;17.120;2023-07-02T03:17:08;99110.60;;;18.50
66372;BMP180;53168;51.146;17.120;2023-07-02T03:19:38;99110.20;;;18.50
66372;BMP180;53168;51.146;17.120;2023-07-02T03:22:11;99111.80;;;18.50
66372;BMP180;53168;51.146;17.120;2023-07-02T03:24:44;99109.00;;;18.60
66372;BMP180;53168;51.146;17.120;2023-07-02T03:27:17;99107.60;;;18.60
66372;BMP180;53168;51.146;17.120;2023-07-02T03:29:47;99108.40;;;18.60
66372;BMP180;53168;51.146;17.120;2023-07-02T03:32:18;99108.00;;;18.70
66372;BMP180;53168;51.146;17.120;2023-07-02T03:34:49;99111.80;;;18.70
66372;BMP180;53168;51.146;17.120;2023-07-02T03:37:20;99113.40;;;18.70
66372;BMP180;53168;51.146;17.120;2023-07-02T03:39:54;99107.20;;;18.70
66372;BMP180;53168;51.146;17.120;2023-07-02T03:42:24;99113.20;;;18.70
66372;BMP180;53168;51.146;17.120;2023-07-02T03:44:54;99110.00;;;18.70
66372;BMP180;53168;51.146;17.120;2023-07-02T03:47:23;99114.80;;;18.80
66372;BMP180;53168;51.146;17.120;2023-07-02T03:49:53;99123.20;;;18.82
66372;BMP180;53168;51.146;17.120;2023-07-02T03:52:24;99126.00;;;18.90
66372;BMP180;53168;51.146;17.120;2023-07-02T03:55:53;99123.80;;;18.90
66372;BMP180;53168;51.146;17.120;2023-07-02T03:59:14;99118.80;;;19.00
66372;BMP180;53168;51.146;17.120;2023-07-02T04:02:06;99124.20;;;19.10
66372;BMP180;53168;51.146;17.120;2023-07-02T04:05:16;99125.20;;;19.22
66372;BMP180;53168;51.146;17.120;2023-07-02T04:08:28;99131.20;;;19.36
66372;BMP180;53168;51.146;17.120;2023-07-02T04:13:00;99131.40;;;19.40
66372;BMP180;53168;51.146;17.120;2023-07-02T04:15:30;99131.80;;;19.40
66372;BMP180;53168;51.146;17.120;2023-07-02T04:20:50;99141.40;;;19.50
66372;BMP180;53168;51.146;17.120;2023-07-02T04:23:20;99136.40;;;19.50
66372;BMP180;53168;51.146;17.120;2023-07-02T04:25:50;99140.40;;;19.54
66372;BMP180;53168;51.146;17.120;2023-07-02T04:28:47;99143.00;;;19.60
66372;BMP180;53168;51.146;17.120;2023-07-02T04:31:19;99140.20;;;19.60
66372;BMP180;53168;51.146;17.120;2023-07-02T04:33:49;99150.40;;;19.60
66372;BMP180;53168;51.146;17.120;2023-07-02T04:36:20;99150.40;;;19.60
66372;BMP180;53168;51.146;17.120;2023-07-02T04:38:50;99150.20;;;19.60
66372;BMP180;53168;51.146;17.120;2023-07-02T04:41:20;99151.40;;;19.62
66372;BMP180;53168;51.146;17.120;2023-07-02T04:43:50;99146.40;;;19.70
66372;BMP180;53168;51.146;17.120;2023-07-02T04:46:20;99153.40;;;19.80
66372;BMP180;53168;51.146;17.120;2023-07-02T04:48:50;99152.20;;;19.90
66372;BMP180;53168;51.146;17.120;2023-07-02T04:51:22;99155.40;;;20.00
66372;BMP180;53168;51.146;17.120;2023-07-02T04:53:51;99164.40;;;20.10
66372;BMP180;53168;51.146;17.120;2023-07-02T04:56:21;99159.20;;;20.10
66372;BMP180;53168;51.146;17.120;2023-07-02T05:02:14;99163.60;;;20.00
66372;BMP180;53168;51.146;17.120;2023-07-02T05:19:24;99168.00;;;20.70
66372;BMP180;53168;51.146;17.120;2023-07-02T05:21:54;99166.40;;;20.80
66372;BMP180;53168;51.146;17.120;2023-07-02T05:24:23;99167.40;;;20.74
66372;BMP180;53168;51.146;17.120;2023-07-02T05:26:53;99168.20;;;20.70
66372;BMP180;53168;51.146;17.120;2023-07-02T05:29:23;99170.00;;;20.70
66372;BMP180;53168;51.146;17.120;2023-07-02T05:31:54;99173.80;;;20.60
66372;BMP180;53168;51.146;17.120;2023-07-02T05:34:23;99177.40;;;20.52
66372;BMP180;53168;51.146;17.120;2023-07-02T05:36:53;99173.80;;;20.50
66372;BMP180;53168;51.146;17.120;2023-07-02T05:39:22;99175.20;;;20.40
66372;BMP180;53168;51.146;17.120;2023-07-02T05:41:52;99181.60;;;20.38
66372;BMP180;53168;51.146;17.120;2023-07-02T05:44:22;99183.80;;;20.40
66372;BMP180;53168;51.146;17.120;2023-07-02T05:46:51;99180.40;;;20.50
66372;BMP180;53168;51.146;17.120;2023-07-02T05:49:21;99184.00;;;20.50
66372;BMP180;53168;51.146;17.120;2023-07-02T05:51:51;99189.20;;;20.50
66372;BMP180;53168;51.146;17.120;2023-07-02T05:54:20;99190.20;;;20.60
66372;BMP180;53168;51.146;17.120;2023-07-02T05:56:51;99187.40;;;20.70
66372;BMP180;53168;51.146;17.120;2023-07-02T05:59:21;99193.00;;;20.80
66372;BMP180;53168;51.146;17.120;2023-07-02T06:01:51;99191.80;;;20.90
66372;BMP180;53168;51.146;17.120;2023-07-02T06:04:20;99194.00;;;20.90
66372;BMP180;53168;51.146;17.120;2023-07-02T06:06:51;99190.80;;;21.00
66372;BMP180;53168;51.146;17.120;2023-07-02T06:09:34;99190.40;;;21.02
66372;BMP180;53168;51.146;17.120;2023-07-02T06:12:06;99197.00;;;21.10
66372;BMP180;53168;51.146;17.120;2023-07-02T06:14:35;99195.20;;;21.10
66372;BMP180;53168;51.146;17.120;2023-07-02T06:17:06;99199.40;;;21.20
66372;BMP180;53168;51.146;17.120;2023-07-02T06:19:39;99191.40;;;21.22
66372;BMP180;53168;51.146;17.120;2023-07-02T06:22:10;99199.20;;;21.40
66372;BMP180;53168;51.146;17.120;2023-07-02T06:24:43;99199.60;;;21.40
66372;BMP180;53168;51.146;17.120;2023-07-02T06:27:55;99210.60;;;21.40
66372;BMP180;53168;51.146;17.120;2023-07-02T06:30:53;99211.40;;;21.20
66372;BMP180;53168;51.146;17.120;2023-07-02T06:33:44;99211.00;;;21.10
66372;BMP180;53168;51.146;17.120;2023-07-02T06:36:21;99218.00;;;21.10
66372;BMP180;53168;51.146;17.120;2023-07-02T06:38:54;99210.40;;;20.94
66372;BMP180;53168;51.146;17.120;2023-07-02T06:41:29;99215.40;;;20.86
66372;BMP180;53168;51.146;17.120;2023-07-02T06:44:34;99216.80;;;20.80
66372;BMP180;53168;51.146;17.120;2023-07-02T06:47:32;99223.00;;;20.70
66372;BMP180;53168;51.146;17.120;2023-07-02T06:50:17;99225.20;;;20.50
66372;BMP180;53168;51.146;17.120;2023-07-02T07:00:42;99240.60;;;19.70
66372;BMP180;53168;51.146;17.120;2023-07-02T07:03:45;99232.20;;;19.70
66372;BMP180;53168;51.146;17.120;2023-07-02T07:06:44;99231.20;;;19.98
66372;BMP180;53168;51.146;17.120;2023-07-02T07:13:50;99236.40;;;20.20
66372;BMP180;53168;51.146;17.120;2023-07-02T07:16:34;99236.80;;;20.30
66372;BMP180;53168;51.146;17.120;2023-07-02T07:19:51;99235.20;;;20.40
66372;BMP180;53168;51.146;17.120;2023-07-02T07:41:33;99236.60;;;21.92
66372;BMP180;53168;51.146;17.120;2023-07-02T07:44:09;99234.40;;;22.10
66372;BMP180;53168;51.146;17.120;2023-07-02T07:50:25;99240.80;;;22.98
66372;BMP180;53168;51.146;17.120;2023-07-02T07:53:11;99226.40;;;23.10
66372;BMP180;53168;51.146;17.120;2023-07-02T07:56:21;99232.40;;;23.30
66372;BMP180;53168;51.146;17.120;2023-07-02T08:02:08;99236.20;;;23.50
66372;BMP180;53168;51.146;17.120;2023-07-02T08:04:39;99238.40;;;23.40
66372;BMP180;53168;51.146;17.120;2023-07-02T08:07:21;99245.00;;;23.28
66372;BMP180;53168;51.146;17.120;2023-07-02T08:10:17;99248.60;;;23.10
66372;BMP180;53168;51.146;17.120;2023-07-02T08:13:21;99249.80;;;23.00
66372;BMP180;53168;51.146;17.120;2023-07-02T08:16:52;99256.20;;;22.70
66372;BMP180;53168;51.146;17.120;2023-07-02T08:19:26;99260.00;;;22.46
66372;BMP180;53168;51.146;17.120;2023-07-02T08:21:57;99259.40;;;22.40
66372;BMP180;53168;51.146;17.120;2023-07-02T08:25:08;99258.40;;;22.30
66372;BMP180;53168;51.146;17.120;2023-07-02T08:28:24;99269.40;;;22.20
66372;BMP180;53168;51.146;17.120;2023-07-02T08:33:53;99264.80;;;22.20
66372;BMP180;53168;51.146;17.120;2023-07-02T08:36:37;99270.20;;;22.30
66372;BMP180;53168;51.146;17.120;2023-07-02T08:39:34;99273.60;;;22.30
66372;BMP180;53168;51.146;17.120;2023-07-02T08:43:24;99277.60;;;22.40
66372;BMP180;53168;51.146;17.120;2023-07-02T08:46:23;99282.00;;;22.20
66372;BMP180;53168;51.146;17.120;2023-07-02T08:49:29;99285.00;;;21.56
66372;BMP180;53168;51.146;17.120;2023-07-02T08:52:04;99289.20;;;21.36
66372;BMP180;53168;51.146;17.120;2023-07-02T08:54:44;99292.20;;;21.10
66372;BMP180;53168;51.146;17.120;2023-07-02T08:57:40;99295.00;;;21.10
66372;BMP180;53168;51.146;17.120;2023-07-02T10:23:47;99307.20;;;24.22
66372;BMP180;53168;51.146;17.120;2023-07-02T10:26:19;99305.60;;;24.00
66372;BMP180;53168;51.146;17.120;2023-07-02T10:29:00;99301.00;;;24.00
66372;BMP180;53168;51.146;17.120;2023-07-02T10:31:30;99297.20;;;24.00
66372;BMP180;53168;51.146;17.120;2023-07-02T10:34:00;99294.60;;;24.10
66372;BMP180;53168;51.146;17.120;2023-07-02T10:36:30;99287.80;;;24.40
66372;BMP180;53168;51.146;17.120;2023-07-02T10:39:04;99282.80;;;24.70
66372;BMP180;53168;51.146;17.120;2023-07-02T10:41:34;99280.80;;;24.96
66372;BMP180;53168;51.146;17.120;2023-07-02T10:44:09;99286.00;;;25.20
66372;BMP180;53168;51.146;17.120;2023-07-02T10:46:46;99291.80;;;25.20
66372;BMP180;53168;51.146;17.120;2023-07-02T10:49:18;99297.80;;;25.10
66372;BMP180;53168;51.146;17.120;2023-07-02T10:51:59;99303.00;;;25.20
66372;BMP180;53168;51.146;17.120;2023-07-02T10:54:41;99294.60;;;25.20
66372;BMP180;53168;51.146;17.120;2023-07-02T10:57:17;99291.80;;;25.40
66372;BMP180;53168;51.146;17.120;2023-07-02T10:59:51;99288.40;;;25.40
66372;BMP180;53168;51.146;17.120;2023-07-02T11:02:21;99295.40;;;25.40
66372;BMP180;53168;51.146;17.120;2023-07-02T11:04:51;99291.20;;;25.30
66372;BMP180;53168;51.146;17.120;2023-07-02T11:07:25;99291.00;;;25.06
66372;BMP180;53168;51.146;17.120;2023-07-02T11:09:54;99282.80;;;24.80
66372;BMP180;53168;51.146;17.120;2023-07-02T11:12:32;99289.20;;;24.60
66372;BMP180;53168;51.146;17.120;2023-07-02T11:15:10;99290.40;;;24.26
66372;BMP180;53168;51.146;17.120;2023-07-02T11:18:09;99286.00;;;24.00
66372;BMP180;53168;51.146;17.120;2023-07-02T11:20:40;99289.80;;;24.00
66372;BMP180;53168;51.146;17.120;2023-07-02T11:23:21;99287.80;;;24.10
66372;BMP180;53168;51.146;17.120;2023-07-02T11:26:00;99288.00;;;24.20
66372;BMP180;53168;51.146;17.120;2023-07-02T11:28:34;99215.60;;;26.50
66372;BMP180;53168;51.146;17.120;2023-07-02T11:31:07;99213.40;;;28.24
66372;BMP180;53168;51.146;17.120;2023-07-02T11:33:40;99208.20;;;29.10
66372;BMP180;53168;51.146;17.120;2023-07-02T11:36:22;99201.20;;;29.72
66372;BMP180;53168;51.146;17.120;2023-07-02T11:38:55;99199.20;;;30.30
66372;BMP180;53168;51.146;17.120;2023-07-02T11:41:25;99198.20;;;30.74
66372;BMP180;53168;51.146;17.120;2023-07-02T11:44:07;99197.20;;;31.18
66372;BMP180;53168;51.146;17.120;2023-07-02T11:46:46;99190.00;;;31.70
66372;BMP180;53168;51.146;17.120;2023-07-02T11:49:18;99183.40;;;32.34
66372;BMP180;53168;51.146;17.120;2023-07-02T11:51:50;99176.40;;;32.72
66372;BMP180;53168;51.146;17.120;2023-07-02T11:57:52;99199.40;;;33.50
66372;BMP180;53168;51.146;17.120;2023-07-02T12:00:25;99164.40;;;32.88
66372;BMP180;53168;51.146;17.120;2023-07-02T12:02:59;99296.40;;;31.52
66372;BMP180;53168;51.146;17.120;2023-07-02T12:05:29;99286.20;;;29.86
66372;BMP180;53168;51.146;17.120;2023-07-02T12:08:18;99297.80;;;29.06
66372;BMP180;53168;51.146;17.120;2023-07-02T12:10:53;99190.40;;;28.94
66372;BMP180;53168;51.146;17.120;2023-07-02T12:13:23;99292.60;;;29.00
66372;BMP180;53168;51.146;17.120;2023-07-02T12:15:53;99298.20;;;28.10
66372;BMP180;53168;51.146;17.120;2023-07-02T12:18:26;99295.20;;;27.50
66372;BMP180;53168;51.146;17.120;2023-07-02T12:20:55;99277.60;;;27.80
66372;BMP180;53168;51.146;17.120;2023-07-02T12:23:43;99279.20;;;28.30
66372;BMP180;53168;51.146;17.120;2023-07-02T12:26:16;99287.00;;;28.00
66372;BMP180;53168;51.146;17.120;2023-07-02T12:32:15;99269.80;;;30.08
66372;BMP180;53168;51.146;17.120;2023-07-02T12:35:10;99283.20;;;30.60
66372;BMP180;53168;51.146;17.120;2023-07-02T12:37:50;99284.80;;;29.50
66372;BMP180;53168;51.146;17.120;2023-07-02T12:40:24;99268.00;;;29.12
66372;BMP180;53168;51.146;17.120;2023-07-02T12:43:04;99286.40;;;28.82
66372;BMP180;53168;51.146;17.120;2023-07-02T12:45:48;99288.00;;;28.04
66372;BMP180;53168;51.146;17.120;2023-07-02T12:48:22;99287.40;;;27.48
66372;BMP180;53168;51.146;17.120;2023-07-02T12:50:56;99284.60;;;27.14
66372;BMP180;53168;51.146;17.120;2023-07-02T12:53:28;99291.80;;;27.02
66372;BMP180;53168;51.146;17.120;2023-07-02T12:55:58;99263.40;;;28.74
66372;BMP180;53168;51.146;17.120;2023-07-02T12:58:31;99299.60;;;29.76
66372;BMP180;53168;51.146;17.120;2023-07-02T13:01:02;99303.60;;;29.20
66372;BMP180;53168;51.146;17.120;2023-07-02T13:03:34;99302.60;;;28.14
66372;BMP180;53168;51.146;17.120;2023-07-02T13:06:09;99314.40;;;27.56
66372;BMP180;53168;51.146;17.120;2023-07-02T13:08:39;99317.80;;;27.04
66372;BMP180;53168;51.146;17.120;2023-07-02T13:11:09;99320.60;;;26.70
66372;BMP180;53168;51.146;17.120;2023-07-02T13:13:39;99288.40;;;26.50
66372;BMP180;53168;51.146;17.120;2023-07-02T13:16:11;99313.60;;;26.80
66372;BMP180;53168;51.146;17.120;2023-07-02T13:18:57;99311.40;;;26.70
66372;BMP180;53168;51.146;17.120;2023-07-02T13:21:29;99316.80;;;26.32
66372;BMP180;53168;51.146;17.120;2023-07-02T13:23:59;99296.00;;;27.64
66372;BMP180;53168;51.146;17.120;2023-07-02T13:26:28;99297.40;;;29.10
66372;BMP180;53168;51.146;17.120;2023-07-02T13:28:58;99296.60;;;30.22
66372;BMP180;53168;51.146;17.120;2023-07-02T13:31:28;99295.80;;;31.00
66372;BMP180;53168;51.146;17.120;2023-07-02T13:33:58;99289.40;;;31.46
66372;BMP180;53168;51.146;17.120;2023-07-02T13:36:28;99290.20;;;32.12
66372;BMP180;53168;51.146;17.120;2023-07-02T13:38:59;99317.60;;;31.08
66372;BMP180;53168;51.146;17.120;2023-07-02T13:41:29;99320.80;;;30.14
66372;BMP180;53168;51.146;17.120;2023-07-02T13:44:00;99307.80;;;30.10
66372;BMP180;53168;51.146;17.120;2023-07-02T13:46:30;99320.00;;;29.90
66372;BMP180;53168;51.146;17.120;2023-07-02T13:49:01;99300.60;;;29.78
66372;BMP180;53168;51.146;17.120;2023-07-02T13:52:05;99313.60;;;30.88
66372;BMP180;53168;51.146;17.120;2023-07-02T13:59:51;99341.60;;;31.08
66372;BMP180;53168;51.146;17.120;2023-07-02T14:02:54;99341.80;;;30.66
66372;BMP180;53168;51.146;17.120;2023-07-02T14:05:53;99355.20;;;30.10
66372;BMP180;53168;51.146;17.120;2023-07-02T14:08:54;99354.00;;;29.78
66372;BMP180;53168;51.146;17.120;2023-07-02T14:15:23;99353.00;;;29.40
66372;BMP180;53168;51.146;17.120;2023-07-02T14:18:20;99359.80;;;30.00
66372;BMP180;53168;51.146;17.120;2023-07-02T14:24:36;99348.60;;;29.28
66372;BMP180;53168;51.146;17.120;2023-07-02T14:27:09;99334.60;;;29.78
66372;BMP180;53168;51.146;17.120;2023-07-02T14:39:01;99360.40;;;32.64
66372;BMP180;53168;51.146;17.120;2023-07-02T14:42:11;99352.00;;;32.98
66372;BMP180;53168;51.146;17.120;2023-07-02T14:44:56;99355.00;;;33.10
66372;BMP180;53168;51.146;17.120;2023-07-02T14:47:38;99355.80;;;33.20
66372;BMP180;53168;51.146;17.120;2023-07-02T14:54:54;99353.20;;;32.90
66372;BMP180;53168;51.146;17.120;2023-07-02T14:58:08;99352.60;;;32.80
66372;BMP180;53168;51.146;17.120;2023-07-02T15:17:54;99350.00;;;33.58
66372;BMP180;53168;51.146;17.120;2023-07-02T15:21:23;99346.60;;;33.80
66372;BMP180;53168;51.146;17.120;2023-07-02T15:24:56;99337.80;;;33.68
66372;BMP180;53168;51.146;17.120;2023-07-02T15:28:15;99342.40;;;33.60
66372;BMP180;53168;51.146;17.120;2023-07-02T15:35:11;99347.20;;;34.10
66372;BMP180;53168;51.146;17.120;2023-07-02T15:38:45;99346.00;;;34.40
66372;BMP180;53168;51.146;17.120;2023-07-02T15:55:59;99331.80;;;33.40
66372;BMP180;53168;51.146;17.120;2023-07-02T15:59:27;99331.80;;;33.20
66372;BMP180;53168;51.146;17.120;2023-07-02T16:17:18;99328.00;;;33.56
66372;BMP180;53168;51.146;17.120;2023-07-02T16:20:44;99325.20;;;33.60
66372;BMP180;53168;51.146;17.120;2023-07-02T16:27:29;99335.40;;;32.76
66372;BMP180;53168;51.146;17.120;2023-07-02T16:38:43;99335.60;;;30.24
66372;BMP180;53168;51.146;17.120;2023-07-02T16:41:29;99408.80;;;30.86
66372;BMP180;53168;51.146;17.120;2023-07-02T16:45:30;99403.20;;;29.34
66372;BMP180;53168;51.146;17.120;2023-07-02T16:53:07;99423.00;;;27.36
66372;BMP180;53168;51.146;17.120;2023-07-02T16:56:27;99420.20;;;26.70
66372;BMP180;53168;51.146;17.120;2023-07-02T16:59:57;99425.00;;;26.10
66372;BMP180;53168;51.146;17.120;2023-07-02T17:18:45;99437.40;;;24.78
66372;BMP180;53168;51.146;17.120;2023-07-02T17:22:20;99443.20;;;24.50
66372;BMP180;53168;51.146;17.120;2023-07-02T17:29:16;99380.40;;;26.50
66372;BMP180;53168;51.146;17.120;2023-07-02T18:02:31;99467.80;;;23.94
66372;BMP180;53168;51.146;17.120;2023-07-02T18:12:29;99483.80;;;23.30
66372;BMP180;53168;51.146;17.120;2023-07-02T18:16:08;99478.40;;;23.18
66372;BMP180;53168;51.146;17.120;2023-07-02T18:19:29;99484.00;;;23.00
66372;BMP180;53168;51.146;17.120;2023-07-02T18:22:14;99491.00;;;22.80
66372;BMP180;53168;51.146;17.120;2023-07-02T18:24:49;99490.60;;;22.68
66372;BMP180;53168;51.146;17.120;2023-07-02T18:27:25;99489.20;;;22.50
66372;BMP180;53168;51.146;17.120;2023-07-02T18:29:59;99491.80;;;22.30
66372;BMP180;53168;51.146;17.120;2023-07-02T20:35:48;99618.40;;;18.34
66372;BMP180;53168;51.146;17.120;2023-07-02T20:38:37;99621.00;;;18.20
66372;BMP180;53168;51.146;17.120;2023-07-02T20:41:15;99619.60;;;18.10
66372;BMP180;53168;51.146;17.120;2023-07-02T20:47:40;99625.40;;;17.90
66372;BMP180;53168;51.146;17.120;2023-07-02T20:50:17;99627.40;;;17.90
66372;BMP180;53168;51.146;17.120;2023-07-02T20:52:49;99631.20;;;17.82
66372;BMP180;53168;51.146;17.120;2023-07-02T20:55:20;99630.80;;;17.80
66372;BMP180;53168;51.146;17.120;2023-07-02T20:57:50;99634.40;;;17.80
66372;BMP180;53168;51.146;17.120;2023-07-02T21:00:21;99634.80;;;17.70
66372;BMP180;53168;51.146;17.120;2023-07-02T21:03:16;99637.00;;;17.60
66372;BMP180;53168;51.146;17.120;2023-07-02T21:05:46;99639.60;;;17.60
66372;BMP180;53168;51.146;17.120;2023-07-02T21:08:16;99641.20;;;17.52
66372;BMP180;53168;51.146;17.120;2023-07-02T21:10:45;99646.20;;;17.46
66372;BMP180;53168;51.146;17.120;2023-07-02T21:13:15;99650.80;;;17.38
66372;BMP180;53168;51.146;17.120;2023-07-02T21:15:54;99646.00;;;17.20
66372;BMP180;53168;51.146;17.120;2023-07-02T21:18:26;99652.00;;;17.18
66372;BMP180;53168;51.146;17.120;2023-07-02T21:21:13;99658.20;;;17.10
66372;BMP180;53168;51.146;17.120;2023-07-02T21:23:43;99662.00;;;17.00
66372;BMP180;53168;51.146;17.120;2023-07-02T21:26:13;99659.80;;;16.90
66372;BMP180;53168;51.146;17.120;2023-07-02T21:28:49;99658.20;;;16.90
66372;BMP180;53168;51.146;17.120;2023-07-02T21:31:26;99663.80;;;16.80
66372;BMP180;53168;51.146;17.120;2023-07-02T22:05:15;99675.40;;;16.88
66372;BMP180;53168;51.146;17.120;2023-07-02T22:07:49;99680.40;;;16.90
66372;BMP180;53168;51.146;17.120;2023-07-02T22:10:25;99681.20;;;16.90
66372;BMP180;53168;51.146;17.120;2023-07-02T22:13:21;99684.80;;;16.80
66372;BMP180;53168;51.146;17.120;2023-07-02T22:16:24;99688.00;;;16.80
66372;BMP180;53168;51.146;17.120;2023-07-02T22:19:00;99690.00;;;16.80
66372;BMP180;53168;51.146;17.120;2023-07-02T22:21:37;99689.40;;;16.90
66372;BMP180;53168;51.146;17.120;2023-07-02T22:24:17;99695.60;;;17.00
66372;BMP180;53168;51.146;17.120;2023-07-02T22:26:52;99694.40;;;17.00
66372;BMP180;53168;51.146;17.120;2023-07-02T22:29:35;99697.60;;;17.00
66372;BMP180;53168;51.146;17.120;2023-07-02T22:32:41;99700.00;;;17.00
66372;BMP180;53168;51.146;17.120;2023-07-02T22:35:16;99696.20;;;17.00
66372;BMP180;53168;51.146;17.120;2023-07-02T22:37:51;99697.80;;;16.98
66372;BMP180;53168;51.146;17.120;2023-07-02T22:40:27;99696.80;;;16.82
66372;BMP180;53168;51.146;17.120;2023-07-02T22:43:02;99703.40;;;16.70
66372;BMP180;53168;51.146;17.120;2023-07-02T22:45:38;99696.40;;;16.50
66372;BMP180;53168;51.146;17.120;2023-07-02T22:48:15;99696.60;;;16.50
66372;BMP180;53168;51.146;17.120;2023-07-02T22:50:49;99693.20;;;16.40
66372;BMP180;53168;51.146;17.120;2023-07-02T22:56:46;99696.40;;;16.20
66372;BMP180;53168;51.146;17.120;2023-07-02T22:59:27;99696.80;;;16.20
66372;BMP180;53168;51.146;17.120;2023-07-02T23:02:01;99694.40;;;16.20
66372;BMP180;53168;51.146;17.120;2023-07-02T23:04:34;99697.20;;;16.20
66372;BMP180;53168;51.146;17.120;2023-07-02T23:07:09;99699.20;;;16.10
66372;BMP180;53168;51.146;17.120;2023-07-02T23:09:43;99696.00;;;16.00
66372;BMP180;53168;51.146;17.120;2023-07-02T23:12:18;99695.60;;;15.90
66372;BMP180;53168;51.146;17.120;2023-07-02T23:14:52;99702.80;;;15.80
66372;BMP180;53168;51.146;17.120;2023-07-02T23:17:26;99693.80;;;15.74
66372;BMP180;53168;51.146;17.120;2023-07-02T23:19:59;99697.40;;;15.70
66372;BMP180;53168;51.146;17.120;2023-07-02T23:22:33;99692.40;;;15.60
66372;BMP180;53168;51.146;17.120;2023-07-02T23:25:15;99694.60;;;15.60
66372;BMP180;53168;51.146;17.120;2023-07-02T23:27:52;99693.80;;;15.52
66372;BMP180;53168;51.146;17.120;2023-07-02T23:30:37;99691.20;;;15.50
66372;BMP180;53168;51.146;17.120;2023-07-02T23:33:11;99685.40;;;15.60
66372;BMP180;53168;51.146;17.120;2023-07-02T23:35:45;99684.40;;;15.60
66372;BMP180;53168;51.146;17.120;2023-07-02T23:38:19;99685.40;;;15.60
66372;BMP180;53168;51.146;17.120;2023-07-02T23:40:53;99689.00;;;15.60
66372;BMP180;53168;51.146;17.120;2023-07-02T23:43:27;99685.80;;;15.60
66372;BMP180;53168;51.146;17.120;2023-07-02T23:46:01;99685.40;;;15.60
66372;BMP180;53168;51.146;17.120;2023-07-02T23:48:35;99688.00;;;15.60
66372;BMP180;53168;51.146;17.120;2023-07-02T23:51:08;99682.00;;;15.60
66372;BMP180;53168;51.146;17.120;2023-07-02T23:53:42;99681.60;;;15.60
66372;BMP180;53168;51.146;17.120;2023-07-02T23:56:15;99683.00;;;15.60
66372;BMP180;53168;51.146;17.120;2023-07-02T23:58:49;99681.40;;;15.60
